Airport View

Enter AWOS ICAO identifier for current METAR.

ex. KFNL

KAVK 310355Z AUTO 14013KT 10SM CLR 21/13 A3014 RMK AO2 PWINO TSNO

31 May 2020 04:11

Frequency: 121.125

Phone: 580-327-6778

Other Area AWOS: KP28 - KEND - KWWR - KWDG

TAF AMD KEND 302333Z 3023/3124 13015G20KT 9999 SKC QNH3004INS BECMG 3103/3104 13010KT 9999 SKC QNH3008INS TX29/3023Z TN16/3112Z LAST NO AMDS AFT 3023 NEXT 0111